Time;durP1;ratioP1;P1;durP2;ratioP2;P2;SDS_P1;SDS_P2;PMS_P1;PMS_P2;Temp;Humidity;BMP_temperature;BMP_pressure;BME280_temperature;BME280_humidity;BME280_pressure;Samples;Min_cycle;Max_cycle;Signal;HPM_P1;HPM_P2
2023/06/06 00:01:41;;;;;;;6.43;2.20;;;;;;;17.78;59.12;95141.50;5116440;27;20504;-82
2023/06/06 00:04:07;;;;;;;5.55;2.33;;;;;;;17.81;59.47;95153.53;5134628;27;20838;-82
2023/06/06 00:06:33;;;;;;;8.95;2.28;;;;;;;17.79;59.53;95159.09;5134382;27;20944;-82
2023/06/06 00:09:00;;;;;;;7.00;2.30;;;;;;;17.86;58.93;95164.25;5134182;27;20409;-81
2023/06/06 00:11:28;;;;;;;4.38;2.10;;;;;;;17.74;58.74;95148.38;5134828;27;20920;-81
2023/06/06 00:13:54;;;;;;;3.20;1.90;;;;;;;17.83;58.40;95156.75;5134140;27;20409;-82
2023/06/06 00:16:20;;;;;;;5.97;2.20;;;;;;;17.61;57.49;95133.56;5134624;27;20492;-82
2023/06/06 00:18:45;;;;;;;3.97;1.70;;;;;;;17.67;57.51;95137.13;5115628;27;20973;-82
2023/06/06 00:21:14;;;;;;;6.40;2.10;;;;;;;17.48;56.78;95103.81;5133972;27;20420;-82
2023/06/06 00:23:39;;;;;;;5.30;1.80;;;;;;;17.76;57.13;95146.28;5133736;27;20419;-82
2023/06/06 00:26:05;;;;;;;4.00;1.80;;;;;;;17.67;55.34;95156.56;5133985;27;20401;-82
2023/06/06 00:28:31;;;;;;;4.13;2.10;;;;;;;17.66;55.63;95149.63;5133806;27;20967;-82
2023/06/06 00:30:56;;;;;;;2.88;1.73;;;;;;;17.59;54.51;95138.31;5133725;27;20516;-82
2023/06/06 00:33:22;;;;;;;2.90;1.70;;;;;;;17.59;53.72;95133.00;5133813;27;20438;-82
2023/06/06 00:35:48;;;;;;;3.67;1.80;;;;;;;17.68;53.91;95144.84;5115186;27;20426;-82
2023/06/06 00:38:13;;;;;;;2.97;1.75;;;;;;;17.55;53.50;95123.91;5133228;27;20400;-82
2023/06/06 00:40:39;;;;;;;3.50;1.80;;;;;;;17.69;52.95;95143.00;5133129;27;20963;-82
2023/06/06 00:43:04;;;;;;;4.75;1.85;;;;;;;17.79;52.94;95155.63;5133470;27;20501;-83
2023/06/06 00:45:30;;;;;;;2.97;1.90;;;;;;;17.67;52.39;95137.13;5114726;27;20401;-82
2023/06/06 00:47:55;;;;;;;3.00;1.80;;;;;;;17.62;52.15;95151.19;5134104;27;20442;-82
2023/06/06 00:50:21;;;;;;;3.75;1.80;;;;;;;17.49;52.24;95132.88;5134212;27;20488;-82
2023/06/06 00:52:49;;;;;;;2.87;1.80;;;;;;;17.53;52.09;95134.00;5133368;27;20905;-82
2023/06/06 00:55:16;;;;;;;3.38;1.65;;;;;;;17.55;51.46;95131.91;5115726;27;20445;-82
2023/06/06 00:57:43;;;;;;;4.18;1.88;;;;;;;17.66;50.48;95146.97;5134444;27;20397;-82
2023/06/06 01:00:10;;;;;;;2.30;1.63;;;;;;;17.56;50.12;95146.78;5115053;27;20413;-82
2023/06/06 01:02:37;;;;;;;3.47;1.65;;;;;;;17.24;49.41;95129.88;5133672;27;20412;-82
2023/06/06 01:05:06;;;;;;;4.40;1.60;;;;;;;17.38;50.23;95152.44;5132648;27;20457;-81
2023/06/06 01:07:32;;;;;;;3.55;1.70;;;;;;;17.41;50.52;95151.91;5133533;27;20412;-81
2023/06/06 01:09:58;;;;;;;4.13;1.67;;;;;;;17.21;50.35;95115.19;5133413;27;20479;-81
2023/06/06 01:12:44;;;;;;;4.70;1.67;;;;;;;17.44;50.39;95161.28;5132893;27;20398;-82
2023/06/06 01:15:16;;;;;;;2.83;1.75;;;;;;;17.35;50.29;95167.03;5132748;27;20323;-81
2023/06/06 01:17:46;;;;;;;3.10;1.77;;;;;;;17.10;49.84;95132.06;5132501;27;20883;-82
2023/06/06 01:20:13;;;;;;;3.55;1.50;;;;;;;17.21;49.87;95159.66;5112874;27;20829;-82
2023/06/06 01:22:39;;;;;;;4.30;1.40;;;;;;;17.29;49.63;95168.00;5133049;27;20467;-81
2023/06/06 01:25:06;;;;;;;3.07;1.53;;;;;;;17.20;49.40;95145.53;5132588;27;20419;-81
2023/06/06 01:27:33;;;;;;;3.05;1.58;;;;;;;17.20;50.02;95150.03;5113602;27;20409;-81
2023/06/06 01:30:00;;;;;;;5.05;1.70;;;;;;;17.41;50.00;95178.53;5131972;27;20421;-82
2023/06/06 01:32:48;;;;;;;2.65;1.60;;;;;;;17.34;50.38;95170.75;5130638;27;20445;-81
2023/06/06 01:35:34;;;;;;;3.63;1.60;;;;;;;17.13;50.70;95142.22;5132406;27;20833;-82
2023/06/06 01:38:11;;;;;;;1.65;1.45;;;;;;;17.16;51.23;95159.56;5132784;27;20788;-81
2023/06/06 01:40:39;;;;;;;2.88;1.55;;;;;;;16.99;51.19;95148.94;5133219;27;20429;-81
2023/06/06 01:43:07;;;;;;;3.40;1.42;;;;;;;16.67;52.14;95110.69;5133015;27;20407;-82
2023/06/06 01:45:35;;;;;;;4.05;1.42;;;;;;;16.85;52.04;95147.66;5132367;27;20397;-82
2023/06/06 01:48:01;;;;;;;3.50;1.70;;;;;;;16.86;52.42;95160.72;5132563;27;20509;-82
2023/06/06 01:50:27;;;;;;;3.15;1.60;;;;;;;16.84;52.33;95140.72;5132689;27;20912;-82
2023/06/06 01:52:55;;;;;;;3.20;1.80;;;;;;;16.95;52.39;95161.13;5132847;27;20893;-82
2023/06/06 01:55:22;;;;;;;4.35;1.65;;;;;;;16.86;53.00;95165.22;5113704;27;20415;-82
2023/06/06 01:57:48;;;;;;;3.60;1.40;;;;;;;16.69;53.19;95140.50;5133361;27;20184;-82
2023/06/06 02:00:15;;;;;;;4.03;1.60;;;;;;;16.68;53.70;95146.84;5131988;27;20465;-81
2023/06/06 02:02:41;;;;;;;2.08;1.38;;;;;;;16.85;53.62;95167.09;5129666;27;20408;-81
2023/06/06 02:05:06;;;;;;;2.53;1.50;;;;;;;16.64;53.71;95156.34;5131540;27;20488;-81
2023/06/06 02:07:34;;;;;;;2.30;1.52;;;;;;;16.54;54.67;95162.25;5114045;27;20165;-81
2023/06/06 02:10:00;;;;;;;6.47;1.53;;;;;;;16.60;54.63;95169.28;5132605;27;20888;-81
2023/06/06 02:12:25;;;;;;;4.68;1.63;;;;;;;16.61;54.71;95157.63;5132157;27;20399;-82
2023/06/06 02:14:54;;;;;;;8.35;2.30;;;;;;;16.36;54.72;95133.25;5131347;27;20503;-81
2023/06/06 02:17:19;;;;;;;3.47;1.90;;;;;;;16.72;54.62;95177.22;5132096;27;20224;-82
2023/06/06 02:19:45;;;;;;;3.30;1.98;;;;;;;16.70;55.07;95182.75;5129976;27;20409;-81
2023/06/06 02:22:10;;;;;;;4.32;2.05;;;;;;;16.72;55.15;95183.34;5131914;28;20421;-81
2023/06/06 02:24:36;;;;;;;2.63;1.88;;;;;;;16.68;55.14;95179.56;5133008;28;20152;-82
2023/06/06 02:27:02;;;;;;;4.07;1.70;;;;;;;16.59;55.07;95168.50;5131890;28;20385;-81
2023/06/06 02:29:27;;;;;;;2.53;1.63;;;;;;;16.77;55.62;95193.25;5132834;28;20721;-82
2023/06/06 02:31:53;;;;;;;2.30;1.60;;;;;;;16.75;55.68;95195.34;5131986;28;20413;-81
2023/06/06 02:34:19;;;;;;;3.88;1.70;;;;;;;16.64;55.68;95188.25;5131023;28;20416;-81
2023/06/06 02:36:45;;;;;;;2.33;1.42;;;;;;;16.74;55.95;95194.53;5132048;28;20184;-81
2023/06/06 02:39:11;;;;;;;1.58;1.33;;;;;;;16.37;56.42;95146.28;5111836;28;20405;-81
2023/06/06 02:41:36;;;;;;;2.40;1.55;;;;;;;16.54;56.72;95197.63;5132006;28;20192;-81
2023/06/06 02:44:02;;;;;;;3.93;1.60;;;;;;;16.46;56.89;95184.72;5131302;28;20416;-81
2023/06/06 02:46:27;;;;;;;2.90;1.50;;;;;;;16.50;57.05;95193.84;5131147;28;20409;-81
2023/06/06 02:48:52;;;;;;;2.87;1.33;;;;;;;16.58;57.32;95204.09;5131347;28;20400;-81
2023/06/06 02:51:22;;;;;;;4.55;1.45;;;;;;;16.35;57.53;95180.25;5130733;28;20405;-81
2023/06/06 02:53:48;;;;;;;2.88;1.48;;;;;;;16.35;57.98;95185.56;5131702;28;20413;-81
2023/06/06 02:56:14;;;;;;;2.65;1.30;;;;;;;16.55;57.88;95206.41;5130133;28;20936;-81
2023/06/06 02:58:40;;;;;;;1.80;1.40;;;;;;;16.02;58.56;95159.72;5130895;28;20393;-81
2023/06/06 03:01:05;;;;;;;3.50;1.67;;;;;;;16.06;59.59;95178.66;5130889;28;20421;-81
2023/06/06 03:03:31;;;;;;;3.08;1.60;;;;;;;16.00;59.48;95190.25;5131806;28;20169;-81
2023/06/06 03:05:58;;;;;;;4.13;1.60;;;;;;;16.10;59.68;95204.50;5129397;28;20401;-81
2023/06/06 03:08:24;;;;;;;5.75;1.80;;;;;;;16.08;59.92;95203.16;5132624;28;20182;-81
2023/06/06 03:10:51;;;;;;;5.90;1.50;;;;;;;16.01;59.45;95186.53;5131832;28;20443;-81
2023/06/06 03:13:17;;;;;;;6.50;1.98;;;;;;;16.10;59.97;95211.66;5132530;28;20231;-82
2023/06/06 03:15:46;;;;;;;3.47;1.50;;;;;;;16.14;60.15;95216.28;5132539;28;20294;-81
2023/06/06 03:18:17;;;;;;;6.03;1.73;;;;;;;16.21;60.10;95213.47;5133001;28;20252;-81
2023/06/06 03:20:48;;;;;;;1.98;1.40;;;;;;;16.13;60.28;95203.25;5113206;28;20193;-82
2023/06/06 03:23:14;;;;;;;5.88;1.60;;;;;;;16.11;60.82;95206.13;5112215;28;20754;-81
2023/06/06 03:25:41;;;;;;;4.85;1.65;;;;;;;16.27;60.66;95220.50;5131706;28;20232;-80
2023/06/06 03:28:06;;;;;;;3.22;1.40;;;;;;;16.32;60.68;95217.97;5131613;27;20160;-81
2023/06/06 03:30:32;;;;;;;4.35;2.25;;;;;;;16.21;60.59;95195.69;5136095;27;20190;-80
2023/06/06 03:33:00;;;;;;;3.55;1.65;;;;;;;16.11;61.38;95182.22;5135742;27;20216;-85
2023/06/06 03:35:26;;;;;;;2.47;1.50;;;;;;;16.25;62.90;95190.72;5117618;27;20192;-81
2023/06/06 03:37:55;;;;;;;6.10;2.10;;;;;;;16.23;61.51;95175.03;5135976;27;20156;-82
2023/06/06 03:40:22;;;;;;;5.80;1.50;;;;;;;16.52;61.15;95220.16;5117329;27;20199;-83
2023/06/06 03:42:47;;;;;;;6.60;1.77;;;;;;;16.61;62.32;95216.09;5135364;27;20252;-82
2023/06/06 03:45:13;;;;;;;4.97;1.75;;;;;;;16.40;62.38;95177.72;5134759;27;20255;-83
2023/06/06 03:47:38;;;;;;;3.20;1.33;;;;;;;16.78;62.15;95216.94;5134834;27;20543;-83
2023/06/06 03:50:04;;;;;;;6.43;1.65;;;;;;;16.97;59.91;95223.63;5132239;27;20176;-85
2023/06/06 03:52:30;;;;;;;3.88;1.50;;;;;;;17.08;61.37;95218.50;5136271;27;20153;-83
2023/06/06 03:54:55;;;;;;;2.25;1.42;;;;;;;17.15;60.24;95211.16;5135690;27;20157;-82
2023/06/06 03:57:20;;;;;;;4.50;1.80;;;;;;;17.14;58.48;95194.38;5117030;27;20172;-82
2023/06/06 03:59:46;;;;;;;2.10;1.48;;;;;;;17.09;58.71;95222.75;5135828;27;20533;-83
2023/06/06 04:02:11;;;;;;;2.88;1.48;;;;;;;17.15;59.42;95209.28;5135979;27;20263;-82
2023/06/06 04:04:37;;;;;;;3.53;1.30;;;;;;;17.13;58.20;95206.06;5135699;27;20179;-84
2023/06/06 04:07:03;;;;;;;3.80;1.73;;;;;;;17.05;58.41;95184.38;5134723;27;20656;-82
2023/06/06 04:09:28;;;;;;;4.68;1.88;;;;;;;17.41;58.88;95221.13;5134763;27;20252;-84
2023/06/06 04:11:54;;;;;;;2.83;1.65;;;;;;;17.43;58.36;95213.72;5134462;27;20605;-84
2023/06/06 04:14:19;;;;;;;4.57;1.30;;;;;;;17.47;58.60;95195.41;5134736;27;20156;-84
2023/06/06 04:16:45;;;;;;;4.88;1.70;;;;;;;17.39;57.17;95170.00;5135238;27;20164;-85
2023/06/06 04:19:10;;;;;;;5.00;1.60;;;;;;;17.69;57.21;95188.28;5135254;27;20157;-83
2023/06/06 04:21:36;;;;;;;3.67;1.70;;;;;;;17.66;56.97;95165.59;5135915;27;20279;-84
2023/06/06 04:24:01;;;;;;;2.30;1.40;;;;;;;18.27;56.26;95224.13;5135316;27;20203;-82
2023/06/06 04:26:31;;;;;;;6.10;1.45;;;;;;;18.09;56.37;95217.25;5135014;27;20152;-81
2023/06/06 04:29:00;;;;;;;4.50;1.98;;;;;;;17.99;56.07;95206.47;5135414;27;20156;-84
2023/06/06 04:31:29;;;;;;;6.80;1.90;;;;;;;17.86;56.55;95210.34;5135093;27;20173;-85
2023/06/06 04:33:55;;;;;;;2.75;2.17;;;;;;;17.95;56.03;95232.03;5134993;27;20231;-85
2023/06/06 04:36:21;;;;;;;4.20;1.63;;;;;;;17.74;56.58;95212.28;5135087;27;20201;-84
2023/06/06 04:38:49;;;;;;;3.95;1.77;;;;;;;17.59;56.60;95182.78;5134637;27;20684;-85
2023/06/06 04:41:20;;;;;;;6.15;1.85;;;;;;;17.65;58.65;95169.31;5134839;27;20208;-87
2023/06/06 04:43:49;;;;;;;4.30;1.77;;;;;;;17.69;56.31;95207.72;5116572;27;20716;-84
2023/06/06 04:46:21;;;;;;;2.20;1.58;;;;;;;17.50;56.85;95174.41;5117524;27;20625;-85
2023/06/06 04:48:53;;;;;;;3.05;2.03;;;;;;;17.77;57.81;95224.31;5121697;27;20168;-86
2023/06/06 04:51:29;;;;;;;8.93;1.63;;;;;;;17.85;58.22;95224.69;5118666;27;20156;-86
2023/06/06 04:54:00;;;;;;;6.57;1.90;;;;;;;17.82;57.32;95211.06;5134234;27;20186;-83
2023/06/06 04:56:28;;;;;;;8.27;1.90;;;;;;;17.55;57.88;95174.50;5134343;27;20220;-85
2023/06/06 04:58:54;;;;;;;7.07;1.77;;;;;;;18.01;58.11;95213.19;5135059;27;20145;-85
2023/06/06 05:01:20;;;;;;;4.57;2.53;;;;;;;17.85;58.03;95162.63;5115818;27;20227;-84
2023/06/06 05:03:46;;;;;;;3.75;1.80;;;;;;;18.25;57.62;95199.63;5134665;27;20176;-82
2023/06/06 05:06:12;;;;;;;3.88;1.88;;;;;;;18.77;56.37;95223.88;5115902;27;20189;-83
2023/06/06 05:08:44;;;;;;;3.38;2.10;;;;;;;19.18;55.41;95225.88;5134483;27;20156;-83
2023/06/06 05:11:12;;;;;;;5.18;2.22;;;;;;;19.69;56.77;95220.91;5116769;27;20512;-83
2023/06/06 05:13:38;;;;;;;6.88;1.73;;;;;;;19.26;54.27;95173.06;5134173;27;20191;-82
2023/06/06 05:16:07;;;;;;;2.45;1.80;;;;;;;19.39;53.95;95193.97;5133346;27;20195;-82
2023/06/06 05:18:33;;;;;;;4.13;1.75;;;;;;;19.78;53.39;95216.69;5133151;27;20161;-81
2023/06/06 05:21:02;;;;;;;3.22;1.75;;;;;;;20.13;51.82;95212.56;5131975;27;20248;-80
2023/06/06 05:23:30;;;;;;;4.53;1.80;;;;;;;20.59;50.48;95235.72;5133842;27;20541;-82
2023/06/06 05:25:57;;;;;;;3.60;1.60;;;;;;;20.61;51.03;95224.78;5132841;27;20225;-82
2023/06/06 05:28:31;;;;;;;2.65;1.50;;;;;;;20.98;51.68;95230.72;5133364;27;20173;-81
2023/06/06 05:30:57;;;;;;;4.57;1.70;;;;;;;21.66;50.42;95236.63;5133248;27;20171;-82
2023/06/06 05:33:27;;;;;;;7.07;1.88;;;;;;;21.72;48.75;95210.59;5132709;27;20208;-82
2023/06/06 05:35:53;;;;;;;6.07;1.63;;;;;;;22.16;47.40;95237.59;5133288;27;20183;-82
2023/06/06 05:38:19;;;;;;;4.38;2.08;;;;;;;21.87;48.23;95240.09;5114850;27;20573;-82
2023/06/06 05:40:45;;;;;;;2.53;1.80;;;;;;;22.52;48.42;95240.94;5133548;27;20184;-82
2023/06/06 05:43:10;;;;;;;6.47;1.92;;;;;;;22.48;46.56;95239.91;5133552;27;20251;-82
2023/06/06 05:45:36;;;;;;;2.90;1.92;;;;;;;22.93;46.80;95218.16;5115042;27;20171;-82
2023/06/06 05:48:03;;;;;;;2.30;1.73;;;;;;;22.94;46.01;95213.59;5133937;27;21028;-82
2023/06/06 05:50:28;;;;;;;2.30;1.63;;;;;;;22.91;45.96;95214.97;5133038;27;20161;-82
2023/06/06 05:52:54;;;;;;;3.35;1.90;;;;;;;23.05;45.49;95220.50;5133492;27;20553;-83
2023/06/06 05:55:30;;;;;;;3.08;1.67;;;;;;;22.87;46.78;95229.22;5133656;27;20164;-82
2023/06/06 05:57:56;;;;;;;1.90;1.55;;;;;;;22.70;45.41;95218.03;5133559;27;20148;-82
2023/06/06 06:00:25;;;;;;;4.93;1.70;;;;;;;22.83;46.35;95193.28;5133281;27;20247;-82
2023/06/06 06:02:53;;;;;;;3.55;1.67;;;;;;;22.56;46.02;95143.50;5133526;27;20172;-82
2023/06/06 06:05:19;;;;;;;1.83;1.48;;;;;;;22.63;46.30;95223.72;5133563;27;20530;-82
2023/06/06 06:07:47;;;;;;;5.18;2.00;;;;;;;22.85;45.46;95218.75;5133226;27;20301;-82
2023/06/06 06:10:13;;;;;;;7.50;1.83;;;;;;;22.71;46.24;95211.59;5114722;27;20182;-82
2023/06/06 06:12:38;;;;;;;2.45;1.85;;;;;;;22.10;45.87;95169.78;5133506;27;20153;-82
2023/06/06 06:15:04;;;;;;;5.00;1.88;;;;;;;21.97;47.61;95169.50;5133362;27;20635;-82
2023/06/06 06:17:30;;;;;;;4.53;1.80;;;;;;;21.84;47.12;95178.97;5132672;27;20184;-82
2023/06/06 06:19:55;;;;;;;4.30;1.70;;;;;;;22.06;48.27;95200.88;5132634;27;20215;-82
2023/06/06 06:22:22;;;;;;;4.00;1.85;;;;;;;22.51;47.46;95186.47;5114192;28;20180;-82
2023/06/06 06:24:48;;;;;;;3.78;1.70;;;;;;;23.20;50.08;95214.22;5132281;28;20168;-82
2023/06/06 06:27:15;;;;;;;4.05;2.03;;;;;;;23.05;46.13;95180.22;5114559;28;21002;-82
2023/06/06 06:29:41;;;;;;;8.13;2.85;;;;;;;23.10;45.00;95217.78;5132841;28;21001;-82
2023/06/06 06:32:07;;;;;;;2.65;1.60;;;;;;;22.89;46.15;95198.34;5114373;28;20257;-82
2023/06/06 06:34:33;;;;;;;2.22;1.63;;;;;;;23.19;45.93;95217.97;5132580;28;20164;-82
2023/06/06 06:36:59;;;;;;;8.13;2.08;;;;;;;23.25;45.82;95214.19;5114458;28;20597;-83
2023/06/06 06:39:24;;;;;;;3.28;1.80;;;;;;;23.18;45.13;95178.75;5133119;28;20149;-82
2023/06/06 06:41:52;;;;;;;4.07;1.83;;;;;;;23.05;44.84;95190.97;5132753;28;20192;-83
2023/06/06 06:44:18;;;;;;;4.57;1.70;;;;;;;23.02;44.81;95210.31;5114411;28;20621;-82
2023/06/06 06:46:43;;;;;;;4.47;1.98;;;;;;;22.98;46.65;95203.91;5132803;28;20160;-83
2023/06/06 06:49:15;;;;;;;4.32;1.70;;;;;;;23.12;46.74;95185.28;5132420;28;20647;-83
2023/06/06 06:51:41;;;;;;;3.83;1.63;;;;;;;23.09;46.02;95189.31;5132789;28;20172;-83
2023/06/06 06:54:10;;;;;;;6.20;1.85;;;;;;;23.07;46.04;95188.00;5132699;28;20144;-83
2023/06/06 06:56:36;;;;;;;6.57;1.83;;;;;;;23.34;45.82;95191.00;5114228;28;20311;-82
2023/06/06 06:59:03;;;;;;;5.05;1.70;;;;;;;23.44;44.86;95203.56;5132877;28;20163;-81
2023/06/06 07:01:29;;;;;;;4.45;1.80;;;;;;;23.69;45.12;95206.84;5132618;28;20203;-81
2023/06/06 07:03:54;;;;;;;5.18;2.15;;;;;;;23.62;45.76;95170.59;5135209;27;20637;-81
2023/06/06 07:06:22;;;;;;;6.30;1.77;;;;;;;23.63;44.28;95166.81;5136835;27;20168;-81
2023/06/06 07:08:49;;;;;;;3.22;1.88;;;;;;;23.92;44.85;95201.75;5118619;27;20205;-81
2023/06/06 07:11:14;;;;;;;2.80;1.90;;;;;;;23.54;45.40;95206.97;5136484;27;20160;-83
2023/06/06 07:13:39;;;;;;;4.13;1.80;;;;;;;23.54;44.91;95203.47;5136546;27;20680;-79
2023/06/06 07:16:05;;;;;;;2.78;1.90;;;;;;;23.77;45.45;95191.97;5136454;27;20156;-79
2023/06/06 07:18:30;;;;;;;2.75;1.60;;;;;;;23.93;44.43;95193.41;5136430;27;20588;-79
2023/06/06 07:20:56;;;;;;;4.35;1.63;;;;;;;24.37;48.33;95203.94;5136398;27;20176;-79
2023/06/06 07:23:21;;;;;;;4.65;1.98;;;;;;;24.61;44.69;95195.81;5100437;27;20203;-78
2023/06/06 07:25:47;;;;;;;4.63;1.95;;;;;;;25.15;45.61;95203.38;5135646;27;20196;-80
2023/06/06 07:28:13;;;;;;;2.60;1.67;;;;;;;25.37;41.31;95201.94;5117167;27;20255;-80
2023/06/06 07:30:39;;;;;;;3.60;1.85;;;;;;;25.15;42.58;95195.31;5117380;27;20306;-80
2023/06/06 07:33:04;;;;;;;5.75;2.10;;;;;;;24.79;41.44;95196.91;5117570;27;20685;-82
2023/06/06 07:35:32;;;;;;;2.83;1.60;;;;;;;24.37;43.67;95178.91;5136043;27;20258;-81
2023/06/06 07:38:02;;;;;;;3.53;2.08;;;;;;;24.56;46.30;95192.38;5135341;27;20184;-82
2023/06/06 07:40:28;;;;;;;5.15;2.42;;;;;;;24.41;43.00;95158.38;5135097;27;20552;-82
2023/06/06 07:42:54;;;;;;;3.65;2.20;;;;;;;24.46;42.16;95171.78;5135141;27;20217;-84
2023/06/06 07:45:21;;;;;;;3.72;2.28;;;;;;;24.34;43.63;95206.38;5135560;27;20256;-83
2023/06/06 07:47:46;;;;;;;2.90;2.10;;;;;;;24.30;44.52;95181.16;5136058;27;20227;-82
2023/06/06 07:50:12;;;;;;;5.55;2.10;;;;;;;24.26;44.35;95197.06;5135901;27;20184;-80
2023/06/06 07:52:43;;;;;;;3.58;2.35;;;;;;;24.06;43.39;95186.50;5136112;27;20167;-81
2023/06/06 07:55:09;;;;;;;2.28;1.60;;;;;;;24.11;45.47;95162.25;5117284;27;20192;-81
2023/06/06 07:57:34;;;;;;;3.70;1.95;;;;;;;24.31;43.94;95191.59;5117356;27;20195;-80
2023/06/06 08:00:00;;;;;;;7.97;1.88;;;;;;;24.34;43.47;95174.09;5134900;27;20255;-81
2023/06/06 08:02:25;;;;;;;2.83;1.92;;;;;;;24.61;43.72;95200.38;5134672;27;20188;-79
2023/06/06 08:04:52;;;;;;;2.53;1.92;;;;;;;24.66;45.96;95179.56;5134633;27;20164;-80
2023/06/06 08:07:18;;;;;;;3.15;2.42;;;;;;;24.97;43.47;95192.63;5116775;27;20172;-79
2023/06/06 08:09:44;;;;;;;5.95;1.80;;;;;;;24.98;43.05;95205.00;5135139;27;20168;-80
2023/06/06 08:12:10;;;;;;;3.00;2.15;;;;;;;24.71;45.75;95184.91;5134557;27;20226;-78
2023/06/06 08:14:36;;;;;;;6.57;1.85;;;;;;;24.59;43.10;95205.25;5115984;27;20183;-79
2023/06/06 08:17:06;;;;;;;4.53;2.15;;;;;;;24.25;44.22;95200.84;5134500;27;20176;-80
2023/06/06 08:19:32;;;;;;;6.07;1.80;;;;;;;24.60;45.62;95198.78;5133719;27;20196;-77
2023/06/06 08:21:57;;;;;;;8.23;2.00;;;;;;;24.65;45.64;95196.81;5134466;27;20195;-79
2023/06/06 08:24:23;;;;;;;6.80;1.95;;;;;;;25.05;47.75;95200.84;5133752;27;20173;-79
2023/06/06 08:26:48;;;;;;;3.97;2.08;;;;;;;25.18;45.87;95183.13;5133445;27;20168;-79
2023/06/06 08:29:14;;;;;;;5.88;2.22;;;;;;;24.92;42.95;95174.63;5134118;27;20168;-79
2023/06/06 08:31:40;;;;;;;2.88;1.75;;;;;;;24.28;43.94;95167.19;5133887;27;20212;-80
2023/06/06 08:34:06;;;;;;;5.18;1.73;;;;;;;24.18;45.04;95161.91;5134158;27;20664;-79
2023/06/06 08:36:32;;;;;;;6.22;2.35;;;;;;;24.48;46.14;95187.63;5131632;27;20180;-79
2023/06/06 08:38:58;;;;;;;3.13;2.20;;;;;;;24.35;44.36;95171.13;5131797;27;20179;-79
2023/06/06 08:41:25;;;;;;;2.30;2.08;;;;;;;24.02;44.68;95170.16;5131369;27;20187;-79
2023/06/06 08:43:53;;;;;;;4.18;2.00;;;;;;;23.89;45.62;95183.47;5130470;27;20304;-79
2023/06/06 08:46:19;;;;;;;5.38;2.03;;;;;;;23.97;49.00;95183.66;5130979;27;20172;-79
2023/06/06 08:48:46;;;;;;;5.35;2.58;;;;;;;24.10;45.18;95184.84;5130506;27;20190;-79
2023/06/06 08:51:12;;;;;;;4.32;2.60;;;;;;;23.94;49.89;95180.75;5130389;27;20179;-80
2023/06/06 08:53:38;;;;;;;3.05;2.40;;;;;;;24.67;47.86;95174.97;5130498;27;20263;-79
2023/06/06 08:56:07;;;;;;;9.25;2.33;;;;;;;24.70;51.82;95156.34;5130114;27;20251;-79
2023/06/06 08:58:34;;;;;;;3.35;1.85;;;;;;;25.04;45.43;95174.19;5131283;27;20176;-79
2023/06/06 09:01:01;;;;;;;4.72;2.10;;;;;;;24.78;44.58;95147.63;5131255;27;20207;-79
2023/06/06 09:03:31;;;;;;;3.20;2.10;;;;;;;24.64;45.71;95172.88;5111429;27;20168;-79
2023/06/06 09:05:59;;;;;;;3.78;2.28;;;;;;;24.61;45.87;95160.00;5131119;27;20172;-79
2023/06/06 09:08:25;;;;;;;4.95;2.33;;;;;;;24.34;47.94;95141.78;5129900;27;20201;-79
2023/06/06 09:10:50;;;;;;;3.22;2.10;;;;;;;24.50;46.94;95166.59;5112706;27;20753;-79
2023/06/06 09:13:15;;;;;;;3.75;2.45;;;;;;;24.61;46.40;95157.31;5130948;27;20592;-79
2023/06/06 09:15:41;;;;;;;3.13;2.30;;;;;;;24.67;46.49;95142.66;5130993;27;20168;-79
2023/06/06 09:18:06;;;;;;;3.90;2.47;;;;;;;24.66;48.44;95124.91;5130988;27;20179;-79
2023/06/06 09:20:33;;;;;;;3.75;2.40;;;;;;;25.08;48.82;95149.03;5130743;27;20285;-79
2023/06/06 09:23:00;;;;;;;6.28;2.65;;;;;;;25.25;48.05;95140.44;5112455;27;20179;-79
2023/06/06 09:25:27;;;;;;;3.90;2.00;;;;;;;25.45;46.20;95155.44;5130146;27;20198;-79
2023/06/06 09:28:05;;;;;;;4.10;2.30;;;;;;;25.16;46.01;95143.00;5112201;27;20558;-79
2023/06/06 09:30:32;;;;;;;4.22;2.90;;;;;;;24.90;46.37;95109.47;5130508;27;20169;-78
2023/06/06 09:33:02;;;;;;;2.92;2.35;;;;;;;24.92;46.68;95146.88;5130629;27;20295;-79
2023/06/06 09:35:31;;;;;;;6.93;2.47;;;;;;;24.66;47.65;95141.84;5112441;27;20205;-79
2023/06/06 09:38:18;;;;;;;3.83;2.17;;;;;;;24.52;47.83;95143.69;5130737;27;20164;-79
2023/06/06 09:40:53;;;;;;;5.68;2.50;;;;;;;24.40;49.32;95136.03;5130239;27;20192;-79
2023/06/06 09:43:30;;;;;;;4.78;2.75;;;;;;;24.60;51.68;95136.84;5130655;27;20603;-79
2023/06/06 09:45:57;;;;;;;3.85;2.63;;;;;;;24.73;48.02;95138.81;5130313;27;20179;-79
2023/06/06 09:48:25;;;;;;;6.40;2.55;;;;;;;24.65;48.67;95131.41;5111872;27;20176;-79
2023/06/06 09:50:51;;;;;;;4.35;2.67;;;;;;;24.65;49.80;95128.72;5130432;27;20218;-79
2023/06/06 09:53:17;;;;;;;8.77;2.65;;;;;;;24.55;49.15;95118.09;5130161;27;20168;-79
2023/06/06 09:55:44;;;;;;;9.40;2.47;;;;;;;24.24;48.97;95125.78;5111995;27;20181;-79
2023/06/06 09:58:15;;;;;;;6.00;2.40;;;;;;;23.85;49.81;95107.16;5131551;27;20173;-79
2023/06/06 10:00:41;;;;;;;2.63;2.15;;;;;;;23.60;50.36;95103.69;5131358;27;20192;-79
2023/06/06 10:03:08;;;;;;;3.45;2.35;;;;;;;23.75;52.13;95115.34;5131086;27;20165;-79
2023/06/06 10:05:36;;;;;;;3.85;2.63;;;;;;;23.67;51.54;95108.72;5130035;27;20895;-79
2023/06/06 10:08:03;;;;;;;6.35;2.30;;;;;;;23.55;52.33;95103.72;5130145;27;20717;-79
2023/06/06 10:10:29;;;;;;;3.28;2.47;;;;;;;23.52;52.31;95103.53;5129987;27;20168;-79
2023/06/06 10:12:55;;;;;;;4.05;2.55;;;;;;;23.43;52.11;95099.81;5129985;27;20221;-79
2023/06/06 10:15:21;;;;;;;3.22;2.38;;;;;;;23.55;54.53;95097.53;5130150;27;20722;-79
2023/06/06 10:17:48;;;;;;;6.30;2.40;;;;;;;23.76;51.93;95098.94;5129793;27;20164;-79
2023/06/06 10:20:14;;;;;;;3.50;2.55;;;;;;;24.04;54.04;95095.31;5129776;27;20185;-79
2023/06/06 10:22:41;;;;;;;3.65;2.17;;;;;;;24.30;50.92;95093.13;5131497;27;20633;-79
2023/06/06 10:25:11;;;;;;;3.13;2.25;;;;;;;24.21;49.52;95102.97;5113819;28;20192;-80
2023/06/06 10:27:42;;;;;;;6.43;2.55;;;;;;;24.18;50.96;95094.63;5114854;28;20243;-80
2023/06/06 10:30:17;;;;;;;3.33;2.40;;;;;;;24.15;51.14;95104.06;5133084;28;20970;-80
2023/06/06 10:32:59;;;;;;;3.92;2.72;;;;;;;24.04;50.59;95092.63;5132480;28;20223;-80
2023/06/06 10:35:25;;;;;;;7.35;3.00;;;;;;;24.08;52.79;95077.53;5129962;28;20185;-80
2023/06/06 10:38:05;;;;;;;5.95;2.60;;;;;;;24.17;50.33;95082.25;5131470;27;20176;-80
2023/06/06 10:40:49;;;;;;;3.75;2.47;;;;;;;24.15;50.34;95079.84;5132743;27;20573;-82
2023/06/06 10:43:17;;;;;;;4.55;2.53;;;;;;;24.26;50.26;95094.81;5133485;27;20187;-80
2023/06/06 10:45:45;;;;;;;4.57;2.92;;;;;;;24.34;50.03;95087.97;5133309;27;20282;-80
2023/06/06 10:48:11;;;;;;;3.58;2.78;;;;;;;24.14;49.84;95080.13;5133891;27;20236;-82
2023/06/06 10:50:37;;;;;;;5.63;2.60;;;;;;;23.65;50.71;95049.84;5133929;27;20304;-82
2023/06/06 10:53:06;;;;;;;4.68;2.53;;;;;;;23.57;51.41;95026.28;5133882;27;20168;-82
2023/06/06 10:55:32;;;;;;;2.83;2.30;;;;;;;23.94;51.91;95073.16;5133775;27;20211;-82
2023/06/06 10:58:16;;;;;;;5.65;2.72;;;;;;;23.97;50.56;95056.41;5134095;27;20191;-82
2023/06/06 11:00:43;;;;;;;3.45;1.90;;;;;;;24.16;51.09;95068.00;5115437;27;20888;-81
2023/06/06 11:03:13;;;;;;;3.33;2.13;;;;;;;24.23;49.95;95063.09;5114286;27;20176;-81
2023/06/06 11:06:03;;;;;;;6.85;3.13;;;;;;;24.29;49.93;95055.75;5133638;27;20648;-82
2023/06/06 11:08:56;;;;;;;4.32;2.55;;;;;;;24.43;50.82;95051.22;5133885;27;20184;-79
2023/06/06 11:11:29;;;;;;;7.15;2.30;;;;;;;24.53;49.97;95047.56;5133142;27;20621;-80
2023/06/06 11:14:12;;;;;;;5.38;2.22;;;;;;;24.53;49.38;95039.50;5133669;27;20664;-82
2023/06/06 11:16:38;;;;;;;4.88;2.50;;;;;;;24.21;48.98;95049.13;5115181;27;20211;-82
2023/06/06 11:19:06;;;;;;;5.32;2.45;;;;;;;24.25;51.45;95038.56;5133421;27;20679;-82
2023/06/06 11:21:35;;;;;;;3.00;2.40;;;;;;;24.31;50.19;95029.31;5133589;27;20196;-80
2023/06/06 11:24:01;;;;;;;5.68;3.05;;;;;;;24.26;49.40;95016.75;5114968;27;20581;-82
2023/06/06 11:26:27;;;;;;;4.45;2.25;;;;;;;24.25;49.40;95035.88;5133912;27;20180;-80
2023/06/06 11:28:55;;;;;;;4.78;2.50;;;;;;;24.01;49.05;94976.75;5133234;27;20187;-82
2023/06/06 11:31:23;;;;;;;5.93;2.10;;;;;;;24.30;50.77;95019.69;5133480;27;20259;-82
2023/06/06 11:33:49;;;;;;;2.90;2.53;;;;;;;24.18;48.90;94995.88;5133218;27;20254;-82
2023/06/06 11:36:15;;;;;;;2.88;2.47;;;;;;;24.25;48.55;95000.91;5113235;27;20208;-82